sensor_id;sensor_type;location;lat;lon;timestamp;temperature;humidity
5027;DHT22;2532;52.480;13.354;2023-02-28T00:01:33;4.90;81.70
5027;DHT22;2532;52.480;13.354;2023-02-28T00:04:02;4.90;81.60
5027;DHT22;2532;52.480;13.354;2023-02-28T00:06:29;5.00;81.80
5027;DHT22;2532;52.480;13.354;2023-02-28T00:08:56;5.00;81.80
5027;DHT22;2532;52.480;13.354;2023-02-28T00:11:23;5.00;81.20
5027;DHT22;2532;52.480;13.354;2023-02-28T00:13:50;4.90;81.20
5027;DHT22;2532;52.480;13.354;2023-02-28T00:16:19;4.90;81.40
5027;DHT22;2532;52.480;13.354;2023-02-28T00:18:46;4.90;81.60
5027;DHT22;2532;52.480;13.354;2023-02-28T00:21:18;5.00;81.80
5027;DHT22;2532;52.480;13.354;2023-02-28T00:23:45;5.00;81.80
5027;DHT22;2532;52.480;13.354;2023-02-28T00:26:20;5.00;81.70
5027;DHT22;2532;52.480;13.354;2023-02-28T00:28:52;5.00;81.70
5027;DHT22;2532;52.480;13.354;2023-02-28T00:31:19;5.00;81.90
5027;DHT22;2532;52.480;13.354;2023-02-28T00:33:47;5.00;81.90
5027;DHT22;2532;52.480;13.354;2023-02-28T00:36:17;4.90;81.70
5027;DHT22;2532;52.480;13.354;2023-02-28T00:38:44;4.80;81.80
5027;DHT22;2532;52.480;13.354;2023-02-28T00:41:12;4.80;82.00
5027;DHT22;2532;52.480;13.354;2023-02-28T00:43:39;4.80;82.00
5027;DHT22;2532;52.480;13.354;2023-02-28T00:46:06;4.70;82.10
5027;DHT22;2532;52.480;13.354;2023-02-28T00:48:34;4.70;82.30
5027;DHT22;2532;52.480;13.354;2023-02-28T00:51:01;4.60;82.40
5027;DHT22;2532;52.480;13.354;2023-02-28T00:53:30;4.60;82.50
5027;DHT22;2532;52.480;13.354;2023-02-28T00:55:58;4.60;82.80
5027;DHT22;2532;52.480;13.354;2023-02-28T00:58:25;4.60;82.90
5027;DHT22;2532;52.480;13.354;2023-02-28T01:00:53;4.60;82.90
5027;DHT22;2532;52.480;13.354;2023-02-28T01:03:21;4.60;83.20
5027;DHT22;2532;52.480;13.354;2023-02-28T01:05:48;4.60;83.30
5027;DHT22;2532;52.480;13.354;2023-02-28T01:08:15;4.50;83.20
5027;DHT22;2532;52.480;13.354;2023-02-28T01:10:44;4.50;83.30
5027;DHT22;2532;52.480;13.354;2023-02-28T01:13:12;4.50;83.40
5027;DHT22;2532;52.480;13.354;2023-02-28T01:15:43;4.40;83.60
5027;DHT22;2532;52.480;13.354;2023-02-28T01:18:12;4.40;83.60
5027;DHT22;2532;52.480;13.354;2023-02-28T01:20:39;4.40;83.70
5027;DHT22;2532;52.480;13.354;2023-02-28T01:23:06;4.40;83.90
5027;DHT22;2532;52.480;13.354;2023-02-28T01:25:34;4.40;83.80
5027;DHT22;2532;52.480;13.354;2023-02-28T01:28:02;4.40;83.90
5027;DHT22;2532;52.480;13.354;2023-02-28T01:30:30;4.40;84.00
5027;DHT22;2532;52.480;13.354;2023-02-28T01:32:57;4.50;84.20
5027;DHT22;2532;52.480;13.354;2023-02-28T01:35:24;4.40;84.00
5027;DHT22;2532;52.480;13.354;2023-02-28T01:37:51;4.30;84.00
5027;DHT22;2532;52.480;13.354;2023-02-28T01:40:19;4.30;83.80
5027;DHT22;2532;52.480;13.354;2023-02-28T01:42:46;4.30;83.90
5027;DHT22;2532;52.480;13.354;2023-02-28T01:45:25;4.30;84.00
5027;DHT22;2532;52.480;13.354;2023-02-28T01:47:57;4.30;84.20
5027;DHT22;2532;52.480;13.354;2023-02-28T01:50:28;4.30;84.40
5027;DHT22;2532;52.480;13.354;2023-02-28T01:52:58;4.30;84.60
5027;DHT22;2532;52.480;13.354;2023-02-28T01:55:28;4.30;84.60
5027;DHT22;2532;52.480;13.354;2023-02-28T01:57:57;4.40;84.70
5027;DHT22;2532;52.480;13.354;2023-02-28T02:00:27;4.40;84.40
5027;DHT22;2532;52.480;13.354;2023-02-28T02:02:58;4.40;84.20
5027;DHT22;2532;52.480;13.354;2023-02-28T02:05:28;4.40;84.30
5027;DHT22;2532;52.480;13.354;2023-02-28T02:08:01;4.40;84.10
5027;DHT22;2532;52.480;13.354;2023-02-28T02:10:33;4.40;84.10
5027;DHT22;2532;52.480;13.354;2023-02-28T02:13:11;4.40;84.10
5027;DHT22;2532;52.480;13.354;2023-02-28T02:15:53;4.30;84.00
5027;DHT22;2532;52.480;13.354;2023-02-28T02:18:28;4.30;84.00
5027;DHT22;2532;52.480;13.354;2023-02-28T02:21:13;4.20;84.10
5027;DHT22;2532;52.480;13.354;2023-02-28T02:24:10;4.20;84.20
5027;DHT22;2532;52.480;13.354;2023-02-28T02:26:55;4.10;84.30
5027;DHT22;2532;52.480;13.354;2023-02-28T02:29:56;4.10;84.60
5027;DHT22;2532;52.480;13.354;2023-02-28T02:35:32;4.00;84.80
5027;DHT22;2532;52.480;13.354;2023-02-28T02:38:08;4.00;85.00
5027;DHT22;2532;52.480;13.354;2023-02-28T02:40:40;4.00;85.00
5027;DHT22;2532;52.480;13.354;2023-02-28T02:43:15;4.00;85.10
5027;DHT22;2532;52.480;13.354;2023-02-28T02:45:47;3.90;85.00
5027;DHT22;2532;52.480;13.354;2023-02-28T02:48:18;3.90;85.20
5027;DHT22;2532;52.480;13.354;2023-02-28T02:50:51;3.90;85.40
5027;DHT22;2532;52.480;13.354;2023-02-28T02:53:23;3.80;85.50
5027;DHT22;2532;52.480;13.354;2023-02-28T02:55:52;3.80;85.60
5027;DHT22;2532;52.480;13.354;2023-02-28T02:58:23;3.80;85.60
5027;DHT22;2532;52.480;13.354;2023-02-28T03:00:53;3.80;85.80
5027;DHT22;2532;52.480;13.354;2023-02-28T03:03:22;3.70;85.80
5027;DHT22;2532;52.480;13.354;2023-02-28T03:05:56;3.70;85.90
5027;DHT22;2532;52.480;13.354;2023-02-28T03:08:24;3.60;86.20
5027;DHT22;2532;52.480;13.354;2023-02-28T03:10:56;3.70;86.20
5027;DHT22;2532;52.480;13.354;2023-02-28T03:17:15;3.60;86.40
5027;DHT22;2532;52.480;13.354;2023-02-28T03:19:53;3.60;86.70
5027;DHT22;2532;52.480;13.354;2023-02-28T03:22:38;3.50;86.90
5027;DHT22;2532;52.480;13.354;2023-02-28T03:25:11;3.50;86.90
5027;DHT22;2532;52.480;13.354;2023-02-28T03:27:49;3.50;86.90
5027;DHT22;2532;52.480;13.354;2023-02-28T03:30:24;3.50;87.00
5027;DHT22;2532;52.480;13.354;2023-02-28T03:32:58;3.50;87.10
5027;DHT22;2532;52.480;13.354;2023-02-28T03:35:29;3.40;87.00
5027;DHT22;2532;52.480;13.354;2023-02-28T03:38:05;3.40;87.10
5027;DHT22;2532;52.480;13.354;2023-02-28T03:40:35;3.40;87.40
5027;DHT22;2532;52.480;13.354;2023-02-28T03:43:11;3.40;87.40
5027;DHT22;2532;52.480;13.354;2023-02-28T03:45:41;3.40;87.50
5027;DHT22;2532;52.480;13.354;2023-02-28T03:48:15;3.40;87.70
5027;DHT22;2532;52.480;13.354;2023-02-28T03:50:44;3.40;87.70
5027;DHT22;2532;52.480;13.354;2023-02-28T03:53:15;3.40;87.70
5027;DHT22;2532;52.480;13.354;2023-02-28T03:55:47;3.40;87.70
5027;DHT22;2532;52.480;13.354;2023-02-28T03:58:21;3.40;88.40
5027;DHT22;2532;52.480;13.354;2023-02-28T04:00:55;3.40;87.70
5027;DHT22;2532;52.480;13.354;2023-02-28T04:03:25;3.30;87.70
5027;DHT22;2532;52.480;13.354;2023-02-28T04:05:53;3.40;87.80
5027;DHT22;2532;52.480;13.354;2023-02-28T04:08:23;3.30;87.70
5027;DHT22;2532;52.480;13.354;2023-02-28T04:10:55;3.30;87.80
5027;DHT22;2532;52.480;13.354;2023-02-28T04:13:26;3.30;88.00
5027;DHT22;2532;52.480;13.354;2023-02-28T04:15:53;3.30;88.00
5027;DHT22;2532;52.480;13.354;2023-02-28T04:18:20;3.30;88.00
5027;DHT22;2532;52.480;13.354;2023-02-28T04:20:47;3.30;88.00
5027;DHT22;2532;52.480;13.354;2023-02-28T04:23:14;3.30;87.90
5027;DHT22;2532;52.480;13.354;2023-02-28T04:25:42;3.30;87.90
5027;DHT22;2532;52.480;13.354;2023-02-28T04:28:09;3.20;87.90
5027;DHT22;2532;52.480;13.354;2023-02-28T04:30:37;3.20;87.90
5027;DHT22;2532;52.480;13.354;2023-02-28T04:33:04;3.20;87.80
5027;DHT22;2532;52.480;13.354;2023-02-28T04:35:32;3.20;87.80
5027;DHT22;2532;52.480;13.354;2023-02-28T04:37:58;3.10;87.70
5027;DHT22;2532;52.480;13.354;2023-02-28T04:40:25;3.10;88.00
5027;DHT22;2532;52.480;13.354;2023-02-28T04:42:54;3.10;89.10
5027;DHT22;2532;52.480;13.354;2023-02-28T04:45:27;3.10;88.70
5027;DHT22;2532;52.480;13.354;2023-02-28T04:48:04;3.00;88.70
5027;DHT22;2532;52.480;13.354;2023-02-28T04:50:31;3.10;88.80
5027;DHT22;2532;52.480;13.354;2023-02-28T04:52:58;3.10;88.80
5027;DHT22;2532;52.480;13.354;2023-02-28T04:55:25;3.10;88.80
5027;DHT22;2532;52.480;13.354;2023-02-28T04:57:53;3.10;88.70
5027;DHT22;2532;52.480;13.354;2023-02-28T05:00:21;3.10;88.70
5027;DHT22;2532;52.480;13.354;2023-02-28T05:02:48;3.10;88.50
5027;DHT22;2532;52.480;13.354;2023-02-28T05:05:15;3.10;88.60
5027;DHT22;2532;52.480;13.354;2023-02-28T05:07:45;3.00;88.60
5027;DHT22;2532;52.480;13.354;2023-02-28T05:10:12;3.00;88.70
5027;DHT22;2532;52.480;13.354;2023-02-28T05:12:39;3.00;88.80
5027;DHT22;2532;52.480;13.354;2023-02-28T05:15:11;3.00;89.00
5027;DHT22;2532;52.480;13.354;2023-02-28T05:17:39;2.90;89.10
5027;DHT22;2532;52.480;13.354;2023-02-28T05:20:07;2.90;89.10
5027;DHT22;2532;52.480;13.354;2023-02-28T05:22:36;2.90;89.20
5027;DHT22;2532;52.480;13.354;2023-02-28T05:25:04;2.90;89.20
5027;DHT22;2532;52.480;13.354;2023-02-28T05:27:31;2.90;89.20
5027;DHT22;2532;52.480;13.354;2023-02-28T05:29:58;2.90;89.30
5027;DHT22;2532;52.480;13.354;2023-02-28T05:32:30;2.90;89.30
5027;DHT22;2532;52.480;13.354;2023-02-28T05:34:57;2.90;89.20
5027;DHT22;2532;52.480;13.354;2023-02-28T05:37:26;2.80;89.10
5027;DHT22;2532;52.480;13.354;2023-02-28T05:39:53;2.80;89.30
5027;DHT22;2532;52.480;13.354;2023-02-28T05:42:20;2.80;89.30
5027;DHT22;2532;52.480;13.354;2023-02-28T05:44:47;2.80;89.50
5027;DHT22;2532;52.480;13.354;2023-02-28T05:47:14;2.80;89.60
5027;DHT22;2532;52.480;13.354;2023-02-28T05:49:43;2.80;89.40
5027;DHT22;2532;52.480;13.354;2023-02-28T05:52:10;2.80;89.40
5027;DHT22;2532;52.480;13.354;2023-02-28T05:54:37;2.80;89.40
5027;DHT22;2532;52.480;13.354;2023-02-28T05:57:04;2.80;89.40
5027;DHT22;2532;52.480;13.354;2023-02-28T05:59:31;2.80;89.40
5027;DHT22;2532;52.480;13.354;2023-02-28T06:01:58;2.70;89.30
5027;DHT22;2532;52.480;13.354;2023-02-28T06:04:25;2.80;89.40
5027;DHT22;2532;52.480;13.354;2023-02-28T06:06:53;2.80;89.30
5027;DHT22;2532;52.480;13.354;2023-02-28T06:09:23;2.80;89.40
5027;DHT22;2532;52.480;13.354;2023-02-28T06:11:50;2.80;89.30
5027;DHT22;2532;52.480;13.354;2023-02-28T06:14:19;2.80;89.40
5027;DHT22;2532;52.480;13.354;2023-02-28T06:16:47;2.80;89.40
5027;DHT22;2532;52.480;13.354;2023-02-28T06:19:14;2.70;89.40
5027;DHT22;2532;52.480;13.354;2023-02-28T06:21:42;2.70;89.50
5027;DHT22;2532;52.480;13.354;2023-02-28T06:24:10;2.70;89.60
5027;DHT22;2532;52.480;13.354;2023-02-28T06:26:37;2.70;89.60
5027;DHT22;2532;52.480;13.354;2023-02-28T06:29:04;2.70;89.60
5027;DHT22;2532;52.480;13.354;2023-02-28T06:31:31;2.80;89.70
5027;DHT22;2532;52.480;13.354;2023-02-28T06:33:58;2.80;89.60
5027;DHT22;2532;52.480;13.354;2023-02-28T06:36:25;2.80;89.50
5027;DHT22;2532;52.480;13.354;2023-02-28T06:38:52;2.80;89.50
5027;DHT22;2532;52.480;13.354;2023-02-28T06:41:23;2.90;89.50
5027;DHT22;2532;52.480;13.354;2023-02-28T06:43:50;2.90;89.40
5027;DHT22;2532;52.480;13.354;2023-02-28T06:46:17;2.90;89.10
5027;DHT22;2532;52.480;13.354;2023-02-28T06:48:45;2.90;89.00
5027;DHT22;2532;52.480;13.354;2023-02-28T06:51:14;2.90;89.00
5027;DHT22;2532;52.480;13.354;2023-02-28T06:53:41;3.00;89.00
5027;DHT22;2532;52.480;13.354;2023-02-28T06:56:10;3.00;88.90
5027;DHT22;2532;52.480;13.354;2023-02-28T06:58:39;3.00;88.90
5027;DHT22;2532;52.480;13.354;2023-02-28T07:01:07;3.10;88.80
5027;DHT22;2532;52.480;13.354;2023-02-28T07:03:35;3.10;88.40
5027;DHT22;2532;52.480;13.354;2023-02-28T07:06:04;3.10;88.10
5027;DHT22;2532;52.480;13.354;2023-02-28T07:08:31;3.10;87.90
5027;DHT22;2532;52.480;13.354;2023-02-28T07:10:58;3.20;87.90
5027;DHT22;2532;52.480;13.354;2023-02-28T07:13:25;3.20;87.70
5027;DHT22;2532;52.480;13.354;2023-02-28T07:15:55;3.20;87.50
5027;DHT22;2532;52.480;13.354;2023-02-28T07:18:22;3.20;87.10
5027;DHT22;2532;52.480;13.354;2023-02-28T07:20:50;3.30;86.80
5027;DHT22;2532;52.480;13.354;2023-02-28T07:23:17;3.30;86.30
5027;DHT22;2532;52.480;13.354;2023-02-28T07:25:44;3.30;86.20
5027;DHT22;2532;52.480;13.354;2023-02-28T07:28:12;3.40;86.20
5027;DHT22;2532;52.480;13.354;2023-02-28T07:30:39;3.40;86.10
5027;DHT22;2532;52.480;13.354;2023-02-28T07:33:08;3.50;86.10
5027;DHT22;2532;52.480;13.354;2023-02-28T07:35:35;3.50;85.80
5027;DHT22;2532;52.480;13.354;2023-02-28T07:38:02;3.50;85.70
5027;DHT22;2532;52.480;13.354;2023-02-28T07:40:29;3.60;85.20
5027;DHT22;2532;52.480;13.354;2023-02-28T07:42:58;3.60;84.10
5027;DHT22;2532;52.480;13.354;2023-02-28T07:45:25;3.70;84.20
5027;DHT22;2532;52.480;13.354;2023-02-28T07:47:54;3.70;84.00
5027;DHT22;2532;52.480;13.354;2023-02-28T07:50:23;3.70;80.60
5027;DHT22;2532;52.480;13.354;2023-02-28T07:52:50;3.80;80.40
5027;DHT22;2532;52.480;13.354;2023-02-28T07:55:17;3.80;80.20
5027;DHT22;2532;52.480;13.354;2023-02-28T07:57:44;3.90;79.90
5027;DHT22;2532;52.480;13.354;2023-02-28T08:00:12;4.00;78.40
5027;DHT22;2532;52.480;13.354;2023-02-28T08:02:39;4.00;77.30
5027;DHT22;2532;52.480;13.354;2023-02-28T08:05:07;4.10;77.30
5027;DHT22;2532;52.480;13.354;2023-02-28T08:07:35;4.10;77.20
5027;DHT22;2532;52.480;13.354;2023-02-28T08:10:03;4.20;75.40
5027;DHT22;2532;52.480;13.354;2023-02-28T08:12:31;4.20;73.70
5027;DHT22;2532;52.480;13.354;2023-02-28T08:14:58;4.20;71.80
5027;DHT22;2532;52.480;13.354;2023-02-28T08:17:25;4.30;70.10
5027;DHT22;2532;52.480;13.354;2023-02-28T08:19:52;4.40;69.80
5027;DHT22;2532;52.480;13.354;2023-02-28T08:22:19;4.40;69.70
5027;DHT22;2532;52.480;13.354;2023-02-28T08:24:47;4.50;68.40
5027;DHT22;2532;52.480;13.354;2023-02-28T08:27:14;4.50;66.60
5027;DHT22;2532;52.480;13.354;2023-02-28T08:29:41;4.50;65.70
5027;DHT22;2532;52.480;13.354;2023-02-28T08:32:08;4.50;65.50
5027;DHT22;2532;52.480;13.354;2023-02-28T08:34:35;4.60;65.60
5027;DHT22;2532;52.480;13.354;2023-02-28T08:37:05;4.60;65.20
5027;DHT22;2532;52.480;13.354;2023-02-28T08:39:34;4.60;64.80
5027;DHT22;2532;52.480;13.354;2023-02-28T08:42:04;4.60;64.80
5027;DHT22;2532;52.480;13.354;2023-02-28T08:44:31;4.60;64.60
5027;DHT22;2532;52.480;13.354;2023-02-28T08:46:58;4.70;64.80
5027;DHT22;2532;52.480;13.354;2023-02-28T08:49:25;4.70;64.80
5027;DHT22;2532;52.480;13.354;2023-02-28T08:51:52;4.80;64.20
5027;DHT22;2532;52.480;13.354;2023-02-28T08:54:20;4.90;64.90
5027;DHT22;2532;52.480;13.354;2023-02-28T08:56:48;5.00;64.90
5027;DHT22;2532;52.480;13.354;2023-02-28T08:59:17;5.00;63.80
5027;DHT22;2532;52.480;13.354;2023-02-28T09:01:43;5.00;62.50
5027;DHT22;2532;52.480;13.354;2023-02-28T09:04:10;5.10;63.30
5027;DHT22;2532;52.480;13.354;2023-02-28T09:06:38;5.10;61.40
5027;DHT22;2532;52.480;13.354;2023-02-28T09:09:05;5.20;61.00
5027;DHT22;2532;52.480;13.354;2023-02-28T09:11:33;5.20;60.40
5027;DHT22;2532;52.480;13.354;2023-02-28T09:14:01;5.20;59.20
5027;DHT22;2532;52.480;13.354;2023-02-28T09:16:31;5.20;58.90
5027;DHT22;2532;52.480;13.354;2023-02-28T09:18:58;5.20;59.30
5027;DHT22;2532;52.480;13.354;2023-02-28T09:21:25;5.20;59.50
5027;DHT22;2532;52.480;13.354;2023-02-28T09:23:52;5.30;59.90
5027;DHT22;2532;52.480;13.354;2023-02-28T09:26:21;5.40;59.70
5027;DHT22;2532;52.480;13.354;2023-02-28T09:28:49;5.40;59.10
5027;DHT22;2532;52.480;13.354;2023-02-28T09:31:18;5.50;58.90
5027;DHT22;2532;52.480;13.354;2023-02-28T09:33:48;5.50;58.50
5027;DHT22;2532;52.480;13.354;2023-02-28T09:36:16;5.60;58.90
5027;DHT22;2532;52.480;13.354;2023-02-28T09:38:44;5.60;59.50
5027;DHT22;2532;52.480;13.354;2023-02-28T09:41:14;5.50;60.00
5027;DHT22;2532;52.480;13.354;2023-02-28T09:43:44;5.60;59.20
5027;DHT22;2532;52.480;13.354;2023-02-28T09:46:25;5.60;58.00
5027;DHT22;2532;52.480;13.354;2023-02-28T09:48:55;5.60;58.60
5027;DHT22;2532;52.480;13.354;2023-02-28T09:51:36;5.70;58.30
5027;DHT22;2532;52.480;13.354;2023-02-28T09:54:10;5.70;58.70
5027;DHT22;2532;52.480;13.354;2023-02-28T09:56:43;5.70;58.80
5027;DHT22;2532;52.480;13.354;2023-02-28T09:59:17;5.80;58.70
5027;DHT22;2532;52.480;13.354;2023-02-28T10:01:54;5.80;58.30
5027;DHT22;2532;52.480;13.354;2023-02-28T10:04:36;5.80;58.50
5027;DHT22;2532;52.480;13.354;2023-02-28T10:07:10;6.00;60.80
5027;DHT22;2532;52.480;13.354;2023-02-28T10:09:45;6.00;59.50
5027;DHT22;2532;52.480;13.354;2023-02-28T10:12:14;6.10;58.80
5027;DHT22;2532;52.480;13.354;2023-02-28T10:14:45;6.10;59.70
5027;DHT22;2532;52.480;13.354;2023-02-28T10:17:16;6.20;62.20
5027;DHT22;2532;52.480;13.354;2023-02-28T10:19:56;6.30;59.30
5027;DHT22;2532;52.480;13.354;2023-02-28T10:22:27;6.40;57.80
5027;DHT22;2532;52.480;13.354;2023-02-28T10:24:57;6.40;57.90
5027;DHT22;2532;52.480;13.354;2023-02-28T10:27:30;6.40;60.70
5027;DHT22;2532;52.480;13.354;2023-02-28T10:30:00;6.40;57.70
5027;DHT22;2532;52.480;13.354;2023-02-28T10:32:29;6.50;57.70
5027;DHT22;2532;52.480;13.354;2023-02-28T10:35:00;6.50;56.90
5027;DHT22;2532;52.480;13.354;2023-02-28T10:37:30;6.50;56.50
5027;DHT22;2532;52.480;13.354;2023-02-28T10:39:57;6.40;56.70
5027;DHT22;2532;52.480;13.354;2023-02-28T10:42:26;6.40;56.30
5027;DHT22;2532;52.480;13.354;2023-02-28T10:45:09;6.20;55.90
5027;DHT22;2532;52.480;13.354;2023-02-28T10:47:48;6.20;57.20
5027;DHT22;2532;52.480;13.354;2023-02-28T10:50:39;6.20;57.00
5027;DHT22;2532;52.480;13.354;2023-02-28T10:53:17;6.30;57.80
5027;DHT22;2532;52.480;13.354;2023-02-28T10:55:56;6.30;56.60
5027;DHT22;2532;52.480;13.354;2023-02-28T10:58:25;6.30;56.00
5027;DHT22;2532;52.480;13.354;2023-02-28T11:00:54;6.20;55.70
5027;DHT22;2532;52.480;13.354;2023-02-28T11:03:30;6.10;55.50
5027;DHT22;2532;52.480;13.354;2023-02-28T11:06:17;6.10;55.20
5027;DHT22;2532;52.480;13.354;2023-02-28T11:08:49;6.10;55.60
5027;DHT22;2532;52.480;13.354;2023-02-28T11:11:17;6.10;55.80
5027;DHT22;2532;52.480;13.354;2023-02-28T11:13:46;6.10;55.40
5027;DHT22;2532;52.480;13.354;2023-02-28T11:16:15;6.10;57.10
5027;DHT22;2532;52.480;13.354;2023-02-28T11:18:46;6.20;55.80
5027;DHT22;2532;52.480;13.354;2023-02-28T11:21:22;6.30;60.40
5027;DHT22;2532;52.480;13.354;2023-02-28T11:23:52;6.40;55.70
5027;DHT22;2532;52.480;13.354;2023-02-28T11:26:38;6.60;58.60
5027;DHT22;2532;52.480;13.354;2023-02-28T11:29:17;6.70;58.60
5027;DHT22;2532;52.480;13.354;2023-02-28T11:32:03;6.80;59.00
5027;DHT22;2532;52.480;13.354;2023-02-28T11:34:31;6.90;55.70
5027;DHT22;2532;52.480;13.354;2023-02-28T11:37:00;6.90;54.50
5027;DHT22;2532;52.480;13.354;2023-02-28T11:39:31;7.00;54.50
5027;DHT22;2532;52.480;13.354;2023-02-28T11:45:25;6.80;54.00
5027;DHT22;2532;52.480;13.354;2023-02-28T11:48:00;6.80;54.50
5027;DHT22;2532;52.480;13.354;2023-02-28T11:50:42;6.80;54.60
5027;DHT22;2532;52.480;13.354;2023-02-28T11:53:21;6.90;53.70
5027;DHT22;2532;52.480;13.354;2023-02-28T11:55:52;6.90;54.10
5027;DHT22;2532;52.480;13.354;2023-02-28T11:58:43;7.10;54.30
5027;DHT22;2532;52.480;13.354;2023-02-28T12:01:25;7.20;54.30
5027;DHT22;2532;52.480;13.354;2023-02-28T12:04:09;7.30;54.30
5027;DHT22;2532;52.480;13.354;2023-02-28T12:06:43;7.30;53.60
5027;DHT22;2532;52.480;13.354;2023-02-28T12:09:26;7.30;53.70
5027;DHT22;2532;52.480;13.354;2023-02-28T12:12:06;7.30;53.80
5027;DHT22;2532;52.480;13.354;2023-02-28T12:17:41;7.30;54.30
5027;DHT22;2532;52.480;13.354;2023-02-28T12:20:18;7.30;54.60
5027;DHT22;2532;52.480;13.354;2023-02-28T12:22:59;7.30;54.80
5027;DHT22;2532;52.480;13.354;2023-02-28T12:25:47;7.20;54.60
5027;DHT22;2532;52.480;13.354;2023-02-28T12:28:20;7.10;54.10
5027;DHT22;2532;52.480;13.354;2023-02-28T12:30:52;6.90;54.30
5027;DHT22;2532;52.480;13.354;2023-02-28T12:33:24;6.80;54.70
5027;DHT22;2532;52.480;13.354;2023-02-28T12:35:55;6.90;55.30
5027;DHT22;2532;52.480;13.354;2023-02-28T12:38:24;6.90;55.10
5027;DHT22;2532;52.480;13.354;2023-02-28T12:40:56;6.90;54.80
5027;DHT22;2532;52.480;13.354;2023-02-28T12:43:31;6.90;55.30
5027;DHT22;2532;52.480;13.354;2023-02-28T12:46:02;6.90;54.80
5027;DHT22;2532;52.480;13.354;2023-02-28T12:48:39;6.90;54.70
5027;DHT22;2532;52.480;13.354;2023-02-28T12:51:07;6.90;54.70
5027;DHT22;2532;52.480;13.354;2023-02-28T12:53:42;6.90;54.60
5027;DHT22;2532;52.480;13.354;2023-02-28T12:56:16;6.90;54.70
5027;DHT22;2532;52.480;13.354;2023-02-28T12:58:48;7.00;54.80
5027;DHT22;2532;52.480;13.354;2023-02-28T13:02:00;6.90;54.50
5027;DHT22;2532;52.480;13.354;2023-02-28T13:10:19;7.10;55.60
5027;DHT22;2532;52.480;13.354;2023-02-28T13:12:52;7.20;54.80
5027;DHT22;2532;52.480;13.354;2023-02-28T13:15:23;7.20;54.90
5027;DHT22;2532;52.480;13.354;2023-02-28T13:17:52;7.30;54.10
5027;DHT22;2532;52.480;13.354;2023-02-28T13:20:21;7.30;54.40
5027;DHT22;2532;52.480;13.354;2023-02-28T13:22:51;7.40;54.20
5027;DHT22;2532;52.480;13.354;2023-02-28T13:25:52;7.50;53.40
5027;DHT22;2532;52.480;13.354;2023-02-28T13:34:21;7.50;53.30
5027;DHT22;2532;52.480;13.354;2023-02-28T13:36:48;7.60;53.50
5027;DHT22;2532;52.480;13.354;2023-02-28T13:39:46;7.50;52.60
5027;DHT22;2532;52.480;13.354;2023-02-28T13:42:32;7.50;52.90
5027;DHT22;2532;52.480;13.354;2023-02-28T13:45:23;7.60;52.80
5027;DHT22;2532;52.480;13.354;2023-02-28T13:48:02;7.50;52.40
5027;DHT22;2532;52.480;13.354;2023-02-28T13:50:33;7.60;52.70
5027;DHT22;2532;52.480;13.354;2023-02-28T13:56:36;7.70;52.50
5027;DHT22;2532;52.480;13.354;2023-02-28T13:59:19;7.80;52.00
5027;DHT22;2532;52.480;13.354;2023-02-28T14:01:57;7.90;52.10
5027;DHT22;2532;52.480;13.354;2023-02-28T14:04:49;8.00;52.20
5027;DHT22;2532;52.480;13.354;2023-02-28T14:07:21;8.00;52.40
5027;DHT22;2532;52.480;13.354;2023-02-28T14:09:55;8.20;52.30
5027;DHT22;2532;52.480;13.354;2023-02-28T14:15:33;8.40;51.30
5027;DHT22;2532;52.480;13.354;2023-02-28T14:18:05;8.30;50.50
5027;DHT22;2532;52.480;13.354;2023-02-28T14:20:40;8.30;50.60
5027;DHT22;2532;52.480;13.354;2023-02-28T14:23:14;8.30;50.90
5027;DHT22;2532;52.480;13.354;2023-02-28T14:25:51;8.40;50.90
5027;DHT22;2532;52.480;13.354;2023-02-28T14:28:25;8.50;50.50
5027;DHT22;2532;52.480;13.354;2023-02-28T14:31:01;8.50;51.00
5027;DHT22;2532;52.480;13.354;2023-02-28T14:33:50;8.60;52.10
5027;DHT22;2532;52.480;13.354;2023-02-28T14:36:30;8.70;50.60
5027;DHT22;2532;52.480;13.354;2023-02-28T14:39:03;8.70;51.00
5027;DHT22;2532;52.480;13.354;2023-02-28T14:41:32;8.80;50.60
5027;DHT22;2532;52.480;13.354;2023-02-28T14:44:03;8.80;51.00
5027;DHT22;2532;52.480;13.354;2023-02-28T14:46:35;8.70;50.70
5027;DHT22;2532;52.480;13.354;2023-02-28T14:49:04;8.60;50.20
5027;DHT22;2532;52.480;13.354;2023-02-28T14:51:34;8.50;49.60
5027;DHT22;2532;52.480;13.354;2023-02-28T14:54:02;8.40;50.00
5027;DHT22;2532;52.480;13.354;2023-02-28T14:56:34;8.40;49.90
5027;DHT22;2532;52.480;13.354;2023-02-28T14:59:03;8.40;50.00
5027;DHT22;2532;52.480;13.354;2023-02-28T15:01:31;8.40;50.00
5027;DHT22;2532;52.480;13.354;2023-02-28T15:04:01;8.40;50.00
5027;DHT22;2532;52.480;13.354;2023-02-28T15:06:33;8.30;50.10
5027;DHT22;2532;52.480;13.354;2023-02-28T15:09:08;8.30;50.10
5027;DHT22;2532;52.480;13.354;2023-02-28T15:11:36;8.40;50.10
5027;DHT22;2532;52.480;13.354;2023-02-28T15:14:04;8.30;50.20
5027;DHT22;2532;52.480;13.354;2023-02-28T15:16:34;8.30;50.50
5027;DHT22;2532;52.480;13.354;2023-02-28T15:19:03;8.30;50.30
5027;DHT22;2532;52.480;13.354;2023-02-28T15:21:34;8.20;50.40
5027;DHT22;2532;52.480;13.354;2023-02-28T15:24:04;8.10;50.00
5027;DHT22;2532;52.480;13.354;2023-02-28T15:26:35;8.00;50.20
5027;DHT22;2532;52.480;13.354;2023-02-28T15:29:06;7.90;50.50
5027;DHT22;2532;52.480;13.354;2023-02-28T15:31:35;7.80;51.00
5027;DHT22;2532;52.480;13.354;2023-02-28T15:34:17;7.80;50.00
5027;DHT22;2532;52.480;13.354;2023-02-28T15:36:46;7.70;50.50
5027;DHT22;2532;52.480;13.354;2023-02-28T15:39:25;7.60;50.80
5027;DHT22;2532;52.480;13.354;2023-02-28T15:42:09;7.50;50.40
5027;DHT22;2532;52.480;13.354;2023-02-28T15:44:37;7.60;51.00
5027;DHT22;2532;52.480;13.354;2023-02-28T15:47:05;7.60;51.40
5027;DHT22;2532;52.480;13.354;2023-02-28T15:49:39;7.50;51.30
5027;DHT22;2532;52.480;13.354;2023-02-28T15:52:13;7.50;51.20
5027;DHT22;2532;52.480;13.354;2023-02-28T15:54:43;7.50;52.10
5027;DHT22;2532;52.480;13.354;2023-02-28T15:57:17;7.40;51.60
5027;DHT22;2532;52.480;13.354;2023-02-28T15:59:49;7.30;51.40
5027;DHT22;2532;52.480;13.354;2023-02-28T16:02:19;7.30;51.50
5027;DHT22;2532;52.480;13.354;2023-02-28T16:05:18;7.30;51.90
5027;DHT22;2532;52.480;13.354;2023-02-28T16:07:47;7.20;51.50
5027;DHT22;2532;52.480;13.354;2023-02-28T16:10:15;7.10;52.10
5027;DHT22;2532;52.480;13.354;2023-02-28T16:12:42;7.10;52.30
5027;DHT22;2532;52.480;13.354;2023-02-28T16:15:18;7.10;52.40
5027;DHT22;2532;52.480;13.354;2023-02-28T16:17:45;7.10;52.50
5027;DHT22;2532;52.480;13.354;2023-02-28T16:20:14;7.10;52.60
5027;DHT22;2532;52.480;13.354;2023-02-28T16:22:41;7.10;52.80
5027;DHT22;2532;52.480;13.354;2023-02-28T16:25:12;7.10;52.90
5027;DHT22;2532;52.480;13.354;2023-02-28T16:27:40;7.00;53.10
5027;DHT22;2532;52.480;13.354;2023-02-28T16:30:15;7.00;53.20
5027;DHT22;2532;52.480;13.354;2023-02-28T16:32:42;7.00;53.20
5027;DHT22;2532;52.480;13.354;2023-02-28T16:35:10;7.00;53.40
5027;DHT22;2532;52.480;13.354;2023-02-28T16:37:39;7.00;53.90
5027;DHT22;2532;52.480;13.354;2023-02-28T16:40:09;7.00;53.80
5027;DHT22;2532;52.480;13.354;2023-02-28T16:42:37;7.00;54.00
5027;DHT22;2532;52.480;13.354;2023-02-28T16:45:06;7.00;53.90
5027;DHT22;2532;52.480;13.354;2023-02-28T16:47:37;7.00;54.40
5027;DHT22;2532;52.480;13.354;2023-02-28T16:50:08;7.00;54.50
5027;DHT22;2532;52.480;13.354;2023-02-28T16:52:39;7.00;54.50
5027;DHT22;2532;52.480;13.354;2023-02-28T16:55:06;7.00;54.60
5027;DHT22;2532;52.480;13.354;2023-02-28T16:57:34;7.00;54.80
5027;DHT22;2532;52.480;13.354;2023-02-28T17:00:03;6.90;54.70